Kanarmoor — FS4492 — position and weather

sailwx.info

Track history (hours):
 
Tides and Currents Weather Stations Pressure Air Temp Water Temp Dewpoint Dewpoint Depression Visibility Wind Speed Wind Dir Waves Ship Positions

Kanarmoor

Last reported at 2017-Sep-24 17:58 UTC. Time now 2017-Sep-24 21:24 UTC.
Position N 47°49' W 004°23'.

Length 16 m.

Type: Fishing. MMSI: 228213700.

Date/timePositionNaut miles runAvg speedWind from/ knotsBaromVisibWave heightAir tempDewpointWater temp
2017-Sep-24 17:58N 47°49' W 004°23'  
2017-Sep-22 01:53N 47°49' W 004°27'11 9.2
2017-Sep-22 00:42N 47°48' W 004°43'2 8.4
2017-Sep-22 00:30N 47°48' W 004°46'1 1.1
2017-Sep-21 23:19N 47°46' W 004°46'1 1.8
2017-Sep-21 22:52N 47°47' W 004°46'3 8.6
2017-Sep-21 22:30N 47°50' W 004°47'4 8.2
2017-Sep-21 22:01N 47°54' W 004°47'1 2.1
2017-Sep-21 21:30N 47°55' W 004°46'0 0.6
2017-Sep-21 21:00N 47°55' W 004°46'2 4.0
2017-Sep-21 20:30N 47°54' W 004°43'4 8.1
2017-Sep-21 19:59N 47°54' W 004°37'4 8.1
2017-Sep-21 19:30N 47°52' W 004°32'5 8.2
2017-Sep-21 18:51N 47°49' W 004°25'2 0.5
2017-Sep-21 15:48N 47°49' W 004°23'0 0.0
2017-Sep-20 23:32N 47°49' W 004°23'0 0.0
2017-Sep-20 23:27N 47°49' W 004°23'4 6.1
2017-Sep-20 22:48N 47°53' W 004°25'8 7.7
2017-Sep-20 21:48N 47°59' W 004°32'2 7.7
2017-Sep-20 21:30N 47°59' W 004°35'4 7.3
2017-Sep-20 21:00N 47°55' W 004°34'10 4.7
2017-Sep-20 18:53N 47°49' W 004°23'0 0.0
2017-Sep-20 05:02N 47°49' W 004°23'0 0.0
2017-Sep-20 04:58N 47°49' W 004°23'0 0.0
2017-Sep-20 02:18N 47°49' W 004°23'0 0.2
2017-Sep-20 01:54N 47°49' W 004°23'14 8.9
2017-Sep-20 00:19N 47°47' W 004°44'2 5.1
2017-Sep-20 00:01N 47°47' W 004°46'0 0.6
2017-Sep-19 23:27N 47°47' W 004°46'0 0.5
2017-Sep-19 22:59N 47°47' W 004°46'0 0.6
2017-Sep-19 22:29N 47°47' W 004°45'2 4.6
2017-Sep-19 21:57N 47°48' W 004°42'0 0.1
2017-Sep-19 21:29N 47°48' W 004°42'3 5.9
2017-Sep-19 20:53N 47°51' W 004°40'3 6.3
2017-Sep-19 20:28N 47°52' W 004°37'4 8.6
2017-Sep-19 19:58N 47°51' W 004°30'4 8.6
2017-Sep-19 19:30N 47°49' W 004°25'1 2.7
2017-Sep-19 18:58N 47°49' W 004°23'0 0.0
2017-Sep-19 04:48N 47°49' W 004°23'9 9.4
2017-Sep-19 03:53N 47°53' W 004°33'3 8.5
2017-Sep-19 03:30N 47°56' W 004°37'0 1.0
2017-Sep-19 03:00N 47°56' W 004°38'0 0.7
2017-Sep-19 02:30N 47°56' W 004°38'0 0.5
2017-Sep-19 02:00N 47°56' W 004°38'0 0.6
2017-Sep-19 01:31N 47°56' W 004°39'0 0.5
2017-Sep-19 00:59N 47°56' W 004°39'0 0.4
2017-Sep-19 00:19N 47°56' W 004°39'0 0.4
2017-Sep-18 23:43N 47°56' W 004°40'0 0.5
2017-Sep-18 23:24N 47°56' W 004°39'1 1.2
2017-Sep-18 22:58N 47°55' W 004°40'1 2.0
2017-Sep-18 22:31N 47°55' W 004°41'1 2.4
2017-Sep-18 21:53N 47°55' W 004°39'0 0.6
2017-Sep-18 21:30N 47°55' W 004°39'0 0.4
2017-Sep-18 21:00N 47°55' W 004°38'1 2.2
2017-Sep-18 20:31N 47°54' W 004°37'5 8.6
2017-Sep-18 19:54N 47°55' W 004°29'7 7.1
2017-Sep-18 18:53N 47°49' W 004°24'1 0.6
2017-Sep-18 17:58N 47°49' W 004°23'0 0.0
2017-Sep-18 01:43N 47°49' W 004°23'0 0.0
2017-Sep-17 22:33N 47°49' W 004°23'4 7.0
2017-Sep-17 22:01N 47°52' W 004°25'0 9.0
2017-Sep-17 21:58N 47°53' W 004°26'1 1.5
2017-Sep-17 21:21N 47°54' W 004°26'1 1.5
2017-Sep-17 20:58N 47°53' W 004°27'1 1.5
2017-Sep-17 20:02N 47°53' W 004°25'0 0.3
2017-Sep-17 19:58N 47°53' W 004°25'4 3.7
2017-Sep-17 18:53N 47°49' W 004°24'  
2017-Sep-15 11:33N 47°49' W 004°23'0 0.0
2017-Sep-14 23:48N 47°49' W 004°23'4 4.5
2017-Sep-14 22:53N 47°53' W 004°25'0 0.5
2017-Sep-14 21:58N 47°53' W 004°24'2 1.9
2017-Sep-14 20:58N 47°55' W 004°25'1 0.6
2017-Sep-14 19:53N 47°55' W 004°26'6 5.7
2017-Sep-14 18:53N 47°49' W 004°25'  
Track history (hours):
 
Tides and Currents Weather Stations Pressure Air Temp Water Temp Dewpoint Dewpoint Depression Visibility Wind Speed Wind Dir Waves Ship Positions

Kanarmoor

Last reported at 2017-Sep-24 17:58 UTC. Time now 2017-Sep-24 21:24 UTC.
Position N 47°49' W 004°23'.

Length 16 m.

Type: Fishing. MMSI: 228213700.

Date/timePositionNaut miles runAvg speedWind from/ knotsBaromVisibWave heightAir tempDewpointWater temp
2017-Sep-24 17:58N 47°49' W 004°23'  
2017-Sep-22 01:53N 47°49' W 004°27'11 9.2
2017-Sep-22 00:42N 47°48' W 004°43'2 8.4
2017-Sep-22 00:30N 47°48' W 004°46'1 1.1
2017-Sep-21 23:19N 47°46' W 004°46'1 1.8
2017-Sep-21 22:52N 47°47' W 004°46'3 8.6
2017-Sep-21 22:30N 47°50' W 004°47'4 8.2
2017-Sep-21 22:01N 47°54' W 004°47'1 2.1
2017-Sep-21 21:30N 47°55' W 004°46'0 0.6
2017-Sep-21 21:00N 47°55' W 004°46'2 4.0
2017-Sep-21 20:30N 47°54' W 004°43'4 8.1
2017-Sep-21 19:59N 47°54' W 004°37'4 8.1
2017-Sep-21 19:30N 47°52' W 004°32'5 8.2
2017-Sep-21 18:51N 47°49' W 004°25'2 0.5
2017-Sep-21 15:48N 47°49' W 004°23'0 0.0
2017-Sep-20 23:32N 47°49' W 004°23'0 0.0
2017-Sep-20 23:27N 47°49' W 004°23'4 6.1
2017-Sep-20 22:48N 47°53' W 004°25'8 7.7
2017-Sep-20 21:48N 47°59' W 004°32'2 7.7
2017-Sep-20 21:30N 47°59' W 004°35'4 7.3
2017-Sep-20 21:00N 47°55' W 004°34'10 4.7
2017-Sep-20 18:53N 47°49' W 004°23'0 0.0
2017-Sep-20 05:02N 47°49' W 004°23'0 0.0
2017-Sep-20 04:58N 47°49' W 004°23'0 0.0
2017-Sep-20 02:18N 47°49' W 004°23'0 0.2
2017-Sep-20 01:54N 47°49' W 004°23'14 8.9
2017-Sep-20 00:19N 47°47' W 004°44'2 5.1
2017-Sep-20 00:01N 47°47' W 004°46'0 0.6
2017-Sep-19 23:27N 47°47' W 004°46'0 0.5
2017-Sep-19 22:59N 47°47' W 004°46'0 0.6
2017-Sep-19 22:29N 47°47' W 004°45'2 4.6
2017-Sep-19 21:57N 47°48' W 004°42'0 0.1
2017-Sep-19 21:29N 47°48' W 004°42'3 5.9
2017-Sep-19 20:53N 47°51' W 004°40'3 6.3
2017-Sep-19 20:28N 47°52' W 004°37'4 8.6
2017-Sep-19 19:58N 47°51' W 004°30'4 8.6
2017-Sep-19 19:30N 47°49' W 004°25'1 2.7
2017-Sep-19 18:58N 47°49' W 004°23'0 0.0
2017-Sep-19 04:48N 47°49' W 004°23'9 9.4
2017-Sep-19 03:53N 47°53' W 004°33'3 8.5
2017-Sep-19 03:30N 47°56' W 004°37'0 1.0
2017-Sep-19 03:00N 47°56' W 004°38'0 0.7
2017-Sep-19 02:30N 47°56' W 004°38'0 0.5
2017-Sep-19 02:00N 47°56' W 004°38'0 0.6
2017-Sep-19 01:31N 47°56' W 004°39'0 0.5
2017-Sep-19 00:59N 47°56' W 004°39'0 0.4
2017-Sep-19 00:19N 47°56' W 004°39'0 0.4
2017-Sep-18 23:43N 47°56' W 004°40'0 0.5
2017-Sep-18 23:24N 47°56' W 004°39'1 1.2
2017-Sep-18 22:58N 47°55' W 004°40'1 2.0
2017-Sep-18 22:31N 47°55' W 004°41'1 2.4
2017-Sep-18 21:53N 47°55' W 004°39'0 0.6
2017-Sep-18 21:30N 47°55' W 004°39'0 0.4
2017-Sep-18 21:00N 47°55' W 004°38'1 2.2
2017-Sep-18 20:31N 47°54' W 004°37'5 8.6
2017-Sep-18 19:54N 47°55' W 004°29'7 7.1
2017-Sep-18 18:53N 47°49' W 004°24'1 0.6
2017-Sep-18 17:58N 47°49' W 004°23'0 0.0
2017-Sep-18 01:43N 47°49' W 004°23'0 0.0
2017-Sep-17 22:33N 47°49' W 004°23'4 7.0
2017-Sep-17 22:01N 47°52' W 004°25'0 9.0
2017-Sep-17 21:58N 47°53' W 004°26'1 1.5
2017-Sep-17 21:21N 47°54' W 004°26'1 1.5
2017-Sep-17 20:58N 47°53' W 004°27'1 1.5
2017-Sep-17 20:02N 47°53' W 004°25'0 0.3
2017-Sep-17 19:58N 47°53' W 004°25'4 3.7
2017-Sep-17 18:53N 47°49' W 004°24'  
2017-Sep-15 11:33N 47°49' W 004°23'0 0.0
2017-Sep-14 23:48N 47°49' W 004°23'4 4.5
2017-Sep-14 22:53N 47°53' W 004°25'0 0.5
2017-Sep-14 21:58N 47°53' W 004°24'2 1.9
2017-Sep-14 20:58N 47°55' W 004°25'1 0.6
2017-Sep-14 19:53N 47°55' W 004°26'6 5.7
2017-Sep-14 18:53N 47°49' W 004°25'  

Dump ship's entire track history